Terminal Aerodrome Forecast
Issued by NWS

Home | Current Version | Previous Version | Text Only | Print | Product List | Glossary On
Versions: 1 2 3 4 5 6 7 8 9 10 11 12 13 14 15 16 17 18
592
FTUS46 KLOX 311319 AAA
TAFPMD
TAF AMD
KPMD 311319Z 3113/0112 24006KT P6SM SKC
     FM312000 04006KT P6SM SKC
     FM312300 28014KT P6SM SKC
     FM011000 29009KT P6SM SKC=

USA.gov is the U.S. government's official web portal to all federal, state and local government web resources and services.